CPU5 weather

Orillia/Matchedash Lake Seaplane Base
Orillia, Ontario, Canada

Public forecast

Using degrees Celsius for public forecast. Weather courtesy of forecast.io.

METAR (pilot weather report)

Closest report is Muskoka Airport, 13.9 nm (25.8 km) NE. Retrieved 2019/05/25 04:00 UTC (20 minutes ago):

CYQA 250400Z AUTO 00000KT 9SM OVC140 11/10 A3009 RMK SLP196

TAF (pilot weather forecast)

Forecast is more than 6 hours old.

Closest forecast is Muskoka Airport, 13.9 nm (25.8 km) NE. Retrieved 2019/05/24 20:00 UTC (8 hours ago):

TAF CYQA 241938Z 2420/2502 VRB03KT P6SM BKN050 FM242200 VRB03KT P6SM SCT030 BKN210 RMK FCST BASED ON AUTO OBS. NXT FCST WILL BE ISSUED AT 251145Z